Time;durP1;ratioP1;P1;durP2;ratioP2;P2;SDS_P1;SDS_P2;PMS_P1;PMS_P2;Temp;Humidity;BMP_temperature;BMP_pressure;BME280_temperature;BME280_humidity;BME280_pressure;Samples;Min_cycle;Max_cycle;Signal;HPM_P1;HPM_P2
2022/07/21 00:00:55;;;;;;;1.00;1.00;;;;;;;;;;5025677;28;20203;-62
2022/07/21 00:03:21;;;;;;;1.10;1.10;;;;;;;;;;5028821;28;20251;-61
2022/07/21 00:05:47;;;;;;;0.97;0.97;;;;;;;;;;5012626;28;20286;-61
2022/07/21 00:08:13;;;;;;;0.90;0.90;;;;;;;;;;5019882;28;20334;-62
2022/07/21 00:10:39;;;;;;;1.00;1.00;;;;;;;;;;5019816;28;20223;-61
2022/07/21 00:13:05;;;;;;;1.00;1.00;;;;;;;;;;5023868;28;20204;-61
2022/07/21 00:15:31;;;;;;;1.00;1.00;;;;;;;;;;5021133;28;20743;-61
2022/07/21 00:17:57;;;;;;;1.07;1.07;;;;;;;;;;5028105;28;20201;-61
2022/07/21 00:20:23;;;;;;;0.90;0.90;;;;;;;;;;5024610;28;20230;-61
2022/07/21 00:22:50;;;;;;;0.93;0.93;;;;;;;;;;5017660;28;20660;-61
2022/07/21 00:25:16;;;;;;;1.00;1.00;;;;;;;;;;5011679;28;20798;-61
2022/07/21 00:27:42;;;;;;;1.00;1.00;;;;;;;;;;5004597;28;21202;-61
2022/07/21 00:30:08;;;;;;;1.00;1.00;;;;;;;;;;5012507;28;20219;-61
2022/07/21 00:32:34;;;;;;;0.97;0.97;;;;;;;;;;5018051;28;20231;-61
2022/07/21 00:35:00;;;;;;;0.90;0.90;;;;;;;;;;5020790;28;20220;-61
2022/07/21 00:37:27;;;;;;;1.00;1.00;;;;;;;;;;5018605;28;20231;-62
2022/07/21 00:39:53;;;;;;;1.00;1.00;;;;;;;;;;5010895;28;20574;-62
2022/07/21 00:42:22;;;;;;;1.00;1.00;;;;;;;;;;5011387;28;20217;-62
2022/07/21 00:44:48;;;;;;;1.00;1.00;;;;;;;;;;5019340;28;20202;-62
2022/07/21 00:47:14;;;;;;;1.00;1.00;;;;;;;;;;5018503;28;20693;-61
2022/07/21 00:49:42;;;;;;;1.00;1.00;;;;;;;;;;5026095;28;20225;-61
2022/07/21 00:52:08;;;;;;;1.00;1.00;;;;;;;;;;5027745;28;20203;-62
2022/07/21 00:54:34;;;;;;;1.00;1.00;;;;;;;;;;5029921;28;20242;-61
2022/07/21 00:57:00;;;;;;;0.93;0.93;;;;;;;;;;5008382;28;20224;-62
2022/07/21 00:59:26;;;;;;;0.97;0.97;;;;;;;;;;5010263;28;20568;-62
2022/07/21 01:01:52;;;;;;;0.90;0.90;;;;;;;;;;5015310;28;20228;-61
2022/07/21 01:04:18;;;;;;;0.90;0.90;;;;;;;;;;5027507;28;20228;-62
2022/07/21 01:06:43;;;;;;;1.00;1.00;;;;;;;;;;5025528;28;20763;-61
2022/07/21 01:09:10;;;;;;;1.00;1.00;;;;;;;;;;5028351;28;20228;-61
2022/07/21 01:11:36;;;;;;;0.90;0.90;;;;;;;;;;5027607;28;20208;-61
2022/07/21 01:14:02;;;;;;;0.90;0.90;;;;;;;;;;5027988;28;20235;-61
2022/07/21 01:16:28;;;;;;;1.10;1.10;;;;;;;;;;5029397;28;20592;-61
2022/07/21 01:18:54;;;;;;;1.00;1.00;;;;;;;;;;5033115;28;21446;-62
2022/07/21 01:21:27;;;;;;;1.00;1.00;;;;;;;;;;5031492;28;20779;-61
2022/07/21 01:23:53;;;;;;;1.10;1.10;;;;;;;;;;5026611;28;20226;-61
2022/07/21 01:26:19;;;;;;;0.93;0.93;;;;;;;;;;5026399;28;20208;-62
2022/07/21 01:28:45;;;;;;;1.00;1.00;;;;;;;;;;5026671;28;20318;-61
2022/07/21 01:31:11;;;;;;;1.00;1.00;;;;;;;;;;5029831;28;20222;-61
2022/07/21 01:33:37;;;;;;;0.90;0.90;;;;;;;;;;5025565;28;20619;-61
2022/07/21 01:36:03;;;;;;;0.90;0.90;;;;;;;;;;5027259;28;20235;-61
2022/07/21 01:41:29;;;;;;;0.97;0.97;;;;;;;;;;5027608;28;20231;-62
2022/07/21 01:43:55;;;;;;;0.90;0.90;;;;;;;;;;5019416;28;20227;-61
2022/07/21 01:46:21;;;;;;;1.00;1.00;;;;;;;;;;5024806;28;20212;-61
2022/07/21 01:48:48;;;;;;;0.93;0.93;;;;;;;;;;5027495;28;20223;-61
2022/07/21 01:51:13;;;;;;;1.00;1.00;;;;;;;;;;5034093;28;20633;-63
2022/07/21 01:53:40;;;;;;;1.00;1.00;;;;;;;;;;5025731;28;20199;-62
2022/07/21 01:56:06;;;;;;;1.00;1.00;;;;;;;;;;5022914;28;21550;-62
2022/07/21 01:58:32;;;;;;;1.00;1.00;;;;;;;;;;5028847;28;20227;-62
2022/07/21 02:00:58;;;;;;;1.00;1.00;;;;;;;;;;5030541;28;20685;-61
2022/07/21 02:03:24;;;;;;;0.90;0.90;;;;;;;;;;5019865;28;20220;-61
2022/07/21 02:05:49;;;;;;;1.00;1.00;;;;;;;;;;5023039;28;21483;-61
2022/07/21 02:08:15;;;;;;;0.90;0.90;;;;;;;;;;5024482;28;21275;-62
2022/07/21 02:10:41;;;;;;;0.90;0.90;;;;;;;;;;5026764;28;20686;-61
2022/07/21 02:13:07;;;;;;;1.00;1.00;;;;;;;;;;5021839;28;20643;-61
2022/07/21 02:15:33;;;;;;;0.90;0.90;;;;;;;;;;5023445;28;20398;-62
2022/07/21 02:17:59;;;;;;;0.80;0.80;;;;;;;;;;5030400;28;20196;-61
2022/07/21 02:20:25;;;;;;;0.90;0.90;;;;;;;;;;5025826;28;20324;-61
2022/07/21 02:22:51;;;;;;;1.00;1.00;;;;;;;;;;5031514;28;20224;-61
2022/07/21 02:25:17;;;;;;;1.00;1.00;;;;;;;;;;5020987;28;20216;-62
2022/07/21 02:27:43;;;;;;;0.90;0.90;;;;;;;;;;5022864;28;20630;-61
2022/07/21 02:30:10;;;;;;;1.00;1.00;;;;;;;;;;5028111;28;20235;-61
2022/07/21 02:32:36;;;;;;;1.00;1.00;;;;;;;;;;5027773;28;20988;-61
2022/07/21 02:35:02;;;;;;;1.00;1.00;;;;;;;;;;5029552;28;20226;-61
2022/07/21 02:37:28;;;;;;;0.90;0.90;;;;;;;;;;5028244;28;20275;-61
2022/07/21 02:39:54;;;;;;;0.90;0.90;;;;;;;;;;5018158;28;20684;-61
2022/07/21 02:42:20;;;;;;;0.90;0.90;;;;;;;;;;5025465;28;20233;-61
2022/07/21 02:44:46;;;;;;;0.90;0.90;;;;;;;;;;5022704;28;20202;-62
2022/07/21 02:47:12;;;;;;;1.10;1.10;;;;;;;;;;5023261;28;20184;-61
2022/07/21 02:49:38;;;;;;;0.90;0.90;;;;;;;;;;5028486;28;20223;-61
2022/07/21 02:52:05;;;;;;;1.00;1.00;;;;;;;;;;5027203;28;21014;-61
2022/07/21 02:54:30;;;;;;;1.00;1.00;;;;;;;;;;5025671;28;20398;-62
2022/07/21 02:56:59;;;;;;;1.00;1.00;;;;;;;;;;5027664;28;20209;-61
2022/07/21 02:59:25;;;;;;;1.07;1.07;;;;;;;;;;5029217;28;20225;-61
2022/07/21 03:01:50;;;;;;;0.90;0.90;;;;;;;;;;5023023;28;20204;-61
2022/07/21 03:04:17;;;;;;;1.07;1.07;;;;;;;;;;5024433;28;20248;-61
2022/07/21 03:06:42;;;;;;;1.00;1.00;;;;;;;;;;5034623;28;20265;-62
2022/07/21 03:09:09;;;;;;;0.97;0.97;;;;;;;;;;5029032;28;20221;-61
2022/07/21 03:11:35;;;;;;;1.00;1.00;;;;;;;;;;5026193;28;20252;-61
2022/07/21 03:14:01;;;;;;;1.00;1.00;;;;;;;;;;5028798;28;20336;-62
2022/07/21 03:16:27;;;;;;;1.00;1.00;;;;;;;;;;5030936;28;20235;-62
2022/07/21 03:18:53;;;;;;;0.97;0.97;;;;;;;;;;5025611;28;20241;-61
2022/07/21 03:21:19;;;;;;;1.10;1.10;;;;;;;;;;5026768;28;20204;-61
2022/07/21 03:23:45;;;;;;;1.00;1.00;;;;;;;;;;5026982;28;20228;-62
2022/07/21 03:26:14;;;;;;;1.00;1.00;;;;;;;;;;5023729;28;20219;-61
2022/07/21 03:28:40;;;;;;;0.93;0.93;;;;;;;;;;5024236;28;20334;-62
2022/07/21 03:31:06;;;;;;;0.90;0.90;;;;;;;;;;5026825;28;20224;-62
2022/07/21 03:33:32;;;;;;;0.90;0.90;;;;;;;;;;5022348;28;20223;-61
2022/07/21 03:35:59;;;;;;;0.90;0.90;;;;;;;;;;5022807;28;20356;-60
2022/07/21 03:38:25;;;;;;;0.90;0.90;;;;;;;;;;5021626;28;20200;-62
2022/07/21 03:40:51;;;;;;;0.90;0.90;;;;;;;;;;5006727;28;20293;-62
2022/07/21 03:43:17;;;;;;;0.90;0.90;;;;;;;;;;5034293;28;20287;-61
2022/07/21 03:45:43;;;;;;;0.90;0.90;;;;;;;;;;5048727;28;20232;-61
2022/07/21 03:48:09;;;;;;;0.83;0.83;;;;;;;;;;5023534;28;20239;-61
2022/07/21 03:50:35;;;;;;;0.90;0.90;;;;;;;;;;5018914;28;20220;-61
2022/07/21 03:53:01;;;;;;;0.90;0.90;;;;;;;;;;5028290;28;20918;-61
2022/07/21 03:55:27;;;;;;;0.90;0.90;;;;;;;;;;5018659;28;20937;-61
2022/07/21 03:57:55;;;;;;;0.90;0.90;;;;;;;;;;5026116;28;20189;-61
2022/07/21 04:00:24;;;;;;;0.90;0.90;;;;;;;;;;5023834;28;20796;-61
2022/07/21 04:02:50;;;;;;;0.90;0.90;;;;;;;;;;5023765;28;20220;-61
2022/07/21 04:05:16;;;;;;;0.90;0.90;;;;;;;;;;5021320;28;20192;-61
2022/07/21 04:07:43;;;;;;;0.90;0.90;;;;;;;;;;5023155;28;20275;-61
2022/07/21 04:10:09;;;;;;;0.90;0.90;;;;;;;;;;5018623;28;20224;-61
2022/07/21 04:12:36;;;;;;;1.00;1.00;;;;;;;;;;5023159;28;20644;-62
2022/07/21 04:15:02;;;;;;;0.90;0.90;;;;;;;;;;5022447;28;20692;-61
2022/07/21 04:17:28;;;;;;;1.00;1.00;;;;;;;;;;5023347;28;20195;-61
2022/07/21 04:19:53;;;;;;;0.90;0.90;;;;;;;;;;5017566;28;20195;-61
2022/07/21 04:22:19;;;;;;;1.00;1.00;;;;;;;;;;5026808;28;20685;-61
2022/07/21 04:24:45;;;;;;;0.90;0.90;;;;;;;;;;5029967;28;20591;-61
2022/07/21 04:27:11;;;;;;;0.90;0.90;;;;;;;;;;5022991;28;21127;-62
2022/07/21 04:29:37;;;;;;;0.93;0.93;;;;;;;;;;5019801;28;20298;-61
2022/07/21 04:32:03;;;;;;;0.90;0.90;;;;;;;;;;5021287;28;20255;-61
2022/07/21 04:34:29;;;;;;;0.90;0.90;;;;;;;;;;5023978;28;20249;-62
2022/07/21 04:36:55;;;;;;;1.00;1.00;;;;;;;;;;5028977;28;20229;-61
2022/07/21 04:39:21;;;;;;;1.00;1.00;;;;;;;;;;5019066;28;20208;-61
2022/07/21 04:41:47;;;;;;;1.03;1.03;;;;;;;;;;5023219;28;20582;-61
2022/07/21 04:44:13;;;;;;;1.00;1.00;;;;;;;;;;5024387;28;20379;-61
2022/07/21 04:46:39;;;;;;;1.00;1.00;;;;;;;;;;5020589;28;20208;-61
2022/07/21 04:49:05;;;;;;;1.03;1.03;;;;;;;;;;5023722;28;20181;-61
2022/07/21 04:51:31;;;;;;;1.00;1.00;;;;;;;;;;5022656;28;20517;-61
2022/07/21 04:53:57;;;;;;;0.90;0.90;;;;;;;;;;5023420;28;20207;-61
2022/07/21 04:56:23;;;;;;;1.00;1.00;;;;;;;;;;5019742;28;20228;-60
2022/07/21 04:58:49;;;;;;;1.07;1.07;;;;;;;;;;5019912;28;20286;-61
2022/07/21 05:01:17;;;;;;;1.07;1.07;;;;;;;;;;5020936;28;20191;-61
2022/07/21 05:03:43;;;;;;;1.00;1.00;;;;;;;;;;5021843;28;20232;-61
2022/07/21 05:06:09;;;;;;;1.00;1.00;;;;;;;;;;5023040;28;20302;-61
2022/07/21 05:08:35;;;;;;;1.00;1.00;;;;;;;;;;5020348;28;20703;-61
2022/07/21 05:11:01;;;;;;;1.07;1.07;;;;;;;;;;5016760;28;20502;-61
2022/07/21 05:13:27;;;;;;;1.00;1.00;;;;;;;;;;5019912;28;20204;-61
2022/07/21 05:15:53;;;;;;;1.00;1.00;;;;;;;;;;5021543;28;20271;-60
2022/07/21 05:18:19;;;;;;;1.00;1.00;;;;;;;;;;5027847;28;20216;-61
2022/07/21 05:20:45;;;;;;;0.90;0.90;;;;;;;;;;5019465;28;20235;-61
2022/07/21 05:23:11;;;;;;;1.00;1.00;;;;;;;;;;5027699;28;20228;-61
2022/07/21 05:25:37;;;;;;;1.00;1.00;;;;;;;;;;5019576;28;20563;-61
2022/07/21 05:28:03;;;;;;;1.00;1.00;;;;;;;;;;5019880;28;20203;-61
2022/07/21 05:30:29;;;;;;;0.90;0.90;;;;;;;;;;5021315;28;20318;-61
2022/07/21 05:32:55;;;;;;;1.00;1.00;;;;;;;;;;5022617;28;20226;-61
2022/07/21 05:35:21;;;;;;;1.00;1.00;;;;;;;;;;5019400;28;20220;-61
2022/07/21 05:37:47;;;;;;;1.00;1.00;;;;;;;;;;5012316;28;20334;-60
2022/07/21 05:40:13;;;;;;;0.90;0.90;;;;;;;;;;5025018;28;20189;-61
2022/07/21 05:42:42;;;;;;;0.90;0.90;;;;;;;;;;5025034;28;20228;-61
2022/07/21 05:45:08;;;;;;;0.90;0.90;;;;;;;;;;5023953;28;20216;-61
2022/07/21 05:47:34;;;;;;;0.90;0.90;;;;;;;;;;5025019;28;20262;-61
2022/07/21 05:50:00;;;;;;;0.90;0.90;;;;;;;;;;5023313;28;20673;-60
2022/07/21 05:52:26;;;;;;;0.90;0.90;;;;;;;;;;5022497;28;20203;-61
2022/07/21 05:54:52;;;;;;;1.03;1.03;;;;;;;;;;5031843;28;20233;-60
2022/07/21 05:57:18;;;;;;;0.90;0.90;;;;;;;;;;5030916;28;20314;-61
2022/07/21 05:59:44;;;;;;;0.90;0.90;;;;;;;;;;5029022;28;20585;-61
2022/07/21 06:02:10;;;;;;;0.90;0.90;;;;;;;;;;5021622;28;20273;-61
2022/07/21 06:04:36;;;;;;;1.00;1.00;;;;;;;;;;5029204;28;21201;-61
2022/07/21 06:07:02;;;;;;;1.00;1.00;;;;;;;;;;5023808;28;20192;-61
2022/07/21 06:09:28;;;;;;;0.90;0.90;;;;;;;;;;5029093;28;20333;-61
2022/07/21 06:11:54;;;;;;;1.00;1.00;;;;;;;;;;5026411;28;20212;-61
2022/07/21 06:14:20;;;;;;;1.10;1.10;;;;;;;;;;5021558;28;20236;-60
2022/07/21 06:16:46;;;;;;;0.93;0.93;;;;;;;;;;5018963;28;20227;-61
2022/07/21 06:19:12;;;;;;;0.90;0.90;;;;;;;;;;5017496;28;20930;-60
2022/07/21 06:21:38;;;;;;;0.90;0.90;;;;;;;;;;5015795;28;20220;-61
2022/07/21 06:24:04;;;;;;;0.90;0.90;;;;;;;;;;5007665;28;20248;-61
2022/07/21 06:26:30;;;;;;;1.00;1.00;;;;;;;;;;5018558;28;20193;-61
2022/07/21 06:28:56;;;;;;;0.90;0.90;;;;;;;;;;5027601;28;20724;-61
2022/07/21 06:31:22;;;;;;;0.90;0.90;;;;;;;;;;5021803;28;20188;-63
2022/07/21 06:33:48;;;;;;;1.00;1.00;;;;;;;;;;5016292;28;20273;-61
2022/07/21 06:36:13;;;;;;;0.90;0.90;;;;;;;;;;5012785;28;20244;-62
2022/07/21 06:38:39;;;;;;;1.00;1.00;;;;;;;;;;5024472;28;20195;-62
2022/07/21 06:41:06;;;;;;;1.00;1.00;;;;;;;;;;5024032;28;20242;-61
2022/07/21 06:43:32;;;;;;;1.00;1.00;;;;;;;;;;5019151;28;20207;-62
2022/07/21 06:45:58;;;;;;;0.97;0.97;;;;;;;;;;5029490;28;20217;-61
2022/07/21 06:48:24;;;;;;;0.90;0.90;;;;;;;;;;5028800;28;20221;-62
2022/07/21 06:50:50;;;;;;;0.93;0.93;;;;;;;;;;5020979;28;20192;-62
2022/07/21 06:53:16;;;;;;;1.00;1.00;;;;;;;;;;5006490;28;20228;-62
2022/07/21 06:55:42;;;;;;;0.97;0.97;;;;;;;;;;5012420;28;20236;-61
2022/07/21 06:58:15;;;;;;;1.00;1.00;;;;;;;;;;5018445;28;20314;-62
2022/07/21 07:00:41;;;;;;;1.00;1.00;;;;;;;;;;5025978;28;20275;-63
2022/07/21 07:03:07;;;;;;;0.90;0.90;;;;;;;;;;5021212;28;20373;-63
2022/07/21 07:05:33;;;;;;;1.00;1.00;;;;;;;;;;5002210;28;20702;-64
2022/07/21 07:08:00;;;;;;;0.90;0.90;;;;;;;;;;5014238;28;20679;-63
2022/07/21 07:10:26;;;;;;;0.90;0.90;;;;;;;;;;5022627;28;20216;-63
2022/07/21 07:12:52;;;;;;;0.93;0.93;;;;;;;;;;5026079;28;20220;-63
2022/07/21 07:15:18;;;;;;;0.90;0.90;;;;;;;;;;5011942;28;20247;-63
2022/07/21 07:17:43;;;;;;;0.90;0.90;;;;;;;;;;5011383;28;20711;-63
2022/07/21 07:20:10;;;;;;;0.90;0.90;;;;;;;;;;5014152;28;20209;-64
2022/07/21 07:22:36;;;;;;;0.90;0.90;;;;;;;;;;5004644;28;20225;-64
2022/07/21 07:25:02;;;;;;;0.97;0.97;;;;;;;;;;5001211;28;20227;-63
2022/07/21 07:27:28;;;;;;;0.90;0.90;;;;;;;;;;5016937;28;20278;-64
2022/07/21 07:29:53;;;;;;;0.90;0.90;;;;;;;;;;5024384;28;20235;-64
2022/07/21 07:32:19;;;;;;;0.97;0.97;;;;;;;;;;5006640;28;20228;-64
2022/07/21 07:34:45;;;;;;;0.95;0.95;;;;;;;;;;5012046;28;20217;-64
2022/07/21 07:37:11;;;;;;;1.00;1.00;;;;;;;;;;5008016;28;20567;-64
2022/07/21 07:39:38;;;;;;;0.90;0.90;;;;;;;;;;5020715;28;20682;-64
2022/07/21 07:42:04;;;;;;;1.00;1.00;;;;;;;;;;4997889;28;20228;-65
2022/07/21 07:44:31;;;;;;;0.90;0.90;;;;;;;;;;5009919;28;20227;-64
2022/07/21 07:46:57;;;;;;;0.90;0.90;;;;;;;;;;5018652;28;20220;-62
2022/07/21 07:49:23;;;;;;;1.00;1.00;;;;;;;;;;4999232;28;20252;-63
2022/07/21 07:51:49;;;;;;;0.93;0.93;;;;;;;;;;4999046;28;20616;-63
2022/07/21 07:54:15;;;;;;;0.90;0.90;;;;;;;;;;5008877;28;22255;-63
2022/07/21 07:56:41;;;;;;;1.00;1.00;;;;;;;;;;5013539;28;20223;-63
2022/07/21 07:59:07;;;;;;;0.95;0.95;;;;;;;;;;5011705;28;20205;-62
2022/07/21 08:01:33;;;;;;;1.05;1.05;;;;;;;;;;5012228;28;20236;-63
2022/07/21 08:03:59;;;;;;;0.90;0.90;;;;;;;;;;5004857;28;20944;-63
2022/07/21 08:06:25;;;;;;;1.00;1.00;;;;;;;;;;5013534;28;20557;-62
2022/07/21 08:08:51;;;;;;;0.98;0.98;;;;;;;;;;5015712;28;20228;-63
2022/07/21 08:11:17;;;;;;;0.93;0.93;;;;;;;;;;5022676;28;20697;-63
2022/07/21 08:13:43;;;;;;;0.90;0.90;;;;;;;;;;5022659;28;20232;-64
2022/07/21 08:16:11;;;;;;;0.90;0.90;;;;;;;;;;5016613;28;20220;-63
2022/07/21 08:18:37;;;;;;;1.00;1.00;;;;;;;;;;5010606;28;20219;-63
2022/07/21 08:21:03;;;;;;;1.00;1.00;;;;;;;;;;5012783;28;20232;-63
2022/07/21 08:23:29;;;;;;;1.00;1.00;;;;;;;;;;5005693;28;21640;-63
2022/07/21 08:25:55;;;;;;;1.00;1.00;;;;;;;;;;5023442;28;20247;-63
2022/07/21 08:28:21;;;;;;;1.00;1.00;;;;;;;;;;5023269;28;20259;-63
2022/07/21 08:30:47;;;;;;;0.90;0.90;;;;;;;;;;5014570;28;20223;-64
2022/07/21 08:33:13;;;;;;;0.98;0.98;;;;;;;;;;5016973;28;20346;-62
2022/07/21 08:35:39;;;;;;;0.90;0.90;;;;;;;;;;5017515;28;20678;-63
2022/07/21 08:38:06;;;;;;;0.90;0.90;;;;;;;;;;5002826;28;20244;-64
2022/07/21 08:40:34;;;;;;;1.00;1.00;;;;;;;;;;5008398;28;20795;-63
2022/07/21 08:43:01;;;;;;;1.00;1.00;;;;;;;;;;5016624;28;20263;-63
2022/07/21 08:45:27;;;;;;;0.90;0.90;;;;;;;;;;5022348;28;20220;-63
2022/07/21 08:47:54;;;;;;;1.00;1.00;;;;;;;;;;5010760;28;20185;-63
2022/07/21 08:50:20;;;;;;;0.90;0.90;;;;;;;;;;5001654;28;20208;-63
2022/07/21 08:52:46;;;;;;;0.95;0.95;;;;;;;;;;5026853;28;20689;-63
2022/07/21 08:55:12;;;;;;;1.00;1.00;;;;;;;;;;5016484;28;20238;-63
2022/07/21 08:57:39;;;;;;;1.00;1.00;;;;;;;;;;5026782;28;20221;-63
2022/07/21 09:00:06;;;;;;;0.90;0.90;;;;;;;;;;5025277;28;20375;-63
2022/07/21 09:02:33;;;;;;;1.00;1.00;;;;;;;;;;5021442;28;20231;-63
2022/07/21 09:04:59;;;;;;;1.00;1.00;;;;;;;;;;5027618;28;20258;-63
2022/07/21 09:07:25;;;;;;;1.00;1.00;;;;;;;;;;5025327;28;20228;-63
2022/07/21 09:09:58;;;;;;;1.00;1.00;;;;;;;;;;5020840;28;20220;-62
2022/07/21 09:12:25;;;;;;;1.00;1.00;;;;;;;;;;5021598;28;21225;-63
2022/07/21 09:14:51;;;;;;;1.00;1.00;;;;;;;;;;5045857;28;20255;-63
2022/07/21 09:17:17;;;;;;;1.00;1.00;;;;;;;;;;5032062;28;20249;-63
2022/07/21 09:19:45;;;;;;;1.00;1.00;;;;;;;;;;5016089;28;20193;-63
2022/07/21 09:22:18;;;;;;;1.00;1.00;;;;;;;;;;5020195;28;20216;-63
2022/07/21 09:24:44;;;;;;;1.00;1.00;;;;;;;;;;5024983;28;20741;-63
2022/07/21 09:27:11;;;;;;;1.10;1.10;;;;;;;;;;5009970;28;20685;-63
2022/07/21 09:29:47;;;;;;;1.00;1.00;;;;;;;;;;5024321;28;20200;-63
2022/07/21 09:32:13;;;;;;;1.00;1.00;;;;;;;;;;5019610;28;20215;-63
2022/07/21 09:34:39;;;;;;;0.98;0.98;;;;;;;;;;5027037;28;22240;-63
2022/07/21 09:37:05;;;;;;;1.00;1.00;;;;;;;;;;5027256;28;20213;-63
2022/07/21 09:39:47;;;;;;;1.00;1.00;;;;;;;;;;5029466;28;20266;-63
2022/07/21 09:42:18;;;;;;;1.00;1.00;;;;;;;;;;5025443;28;20271;-63
2022/07/21 09:44:48;;;;;;;1.00;1.00;;;;;;;;;;5016883;28;20334;-63
2022/07/21 09:47:14;;;;;;;1.10;1.10;;;;;;;;;;5023463;28;20212;-63
2022/07/21 09:49:40;;;;;;;1.00;1.00;;;;;;;;;;5025376;28;20215;-63
2022/07/21 09:52:25;;;;;;;1.00;1.00;;;;;;;;;;5027012;28;20283;-63
2022/07/21 09:54:51;;;;;;;1.02;1.02;;;;;;;;;;5027603;28;20249;-63
2022/07/21 09:57:17;;;;;;;1.08;1.08;;;;;;;;;;5027684;28;20316;-64
2022/07/21 09:59:44;;;;;;;1.08;1.08;;;;;;;;;;5021794;28;20220;-63
2022/07/21 10:02:11;;;;;;;1.15;1.15;;;;;;;;;;5026579;28;20192;-63
2022/07/21 10:04:38;;;;;;;1.10;1.10;;;;;;;;;;5021111;28;20224;-62
2022/07/21 10:07:04;;;;;;;1.00;1.00;;;;;;;;;;5028163;28;20574;-62
2022/07/21 10:09:29;;;;;;;1.10;1.10;;;;;;;;;;5034299;28;20232;-62
2022/07/21 10:11:55;;;;;;;1.10;1.10;;;;;;;;;;5028173;28;20231;-63
2022/07/21 10:14:21;;;;;;;1.00;1.00;;;;;;;;;;5011166;28;20231;-62
2022/07/21 10:16:47;;;;;;;0.93;0.93;;;;;;;;;;5011889;28;20380;-63
2022/07/21 10:19:15;;;;;;;1.00;1.00;;;;;;;;;;5018381;28;20188;-63
2022/07/21 10:21:42;;;;;;;1.00;1.00;;;;;;;;;;5013561;28;20227;-63
2022/07/21 10:24:12;;;;;;;1.00;1.00;;;;;;;;;;5020054;28;20231;-62
2022/07/21 10:26:38;;;;;;;0.90;0.90;;;;;;;;;;5028247;28;20224;-62
2022/07/21 10:29:04;;;;;;;0.90;0.90;;;;;;;;;;5025730;28;20220;-63
2022/07/21 10:31:30;;;;;;;1.00;1.00;;;;;;;;;;5024089;28;20358;-62
2022/07/21 10:33:57;;;;;;;1.10;1.10;;;;;;;;;;5022978;28;20568;-60
2022/07/21 10:36:31;;;;;;;0.90;0.90;;;;;;;;;;5026188;28;20232;-60
2022/07/21 10:39:09;;;;;;;0.90;0.90;;;;;;;;;;5018675;28;20200;-60
2022/07/21 10:41:39;;;;;;;1.00;1.00;;;;;;;;;;5025496;28;20204;-60
2022/07/21 10:44:23;;;;;;;1.05;1.05;;;;;;;;;;5028962;28;20255;-60
2022/07/21 10:47:17;;;;;;;1.10;1.10;;;;;;;;;;5024987;28;20233;-60
2022/07/21 10:49:47;;;;;;;1.00;1.00;;;;;;;;;;5024977;28;20720;-60
2022/07/21 10:52:32;;;;;;;1.20;1.20;;;;;;;;;;5030946;28;20327;-60
2022/07/21 10:55:10;;;;;;;1.00;1.00;;;;;;;;;;5030790;28;20219;-61
2022/07/21 10:57:36;;;;;;;1.00;1.00;;;;;;;;;;5032686;28;20255;-60
2022/07/21 11:00:21;;;;;;;0.90;0.90;;;;;;;;;;5021772;28;20217;-60
2022/07/21 11:02:51;;;;;;;0.90;0.90;;;;;;;;;;5012180;28;20201;-60
2022/07/21 11:05:17;;;;;;;1.00;1.00;;;;;;;;;;5009951;28;20224;-60
2022/07/21 11:08:02;;;;;;;0.90;0.90;;;;;;;;;;5018836;28;20197;-60
2022/07/21 11:10:28;;;;;;;1.13;1.13;;;;;;;;;;5014926;28;20220;-60
2022/07/21 11:12:57;;;;;;;1.10;1.10;;;;;;;;;;5004053;28;21154;-60
2022/07/21 11:15:42;;;;;;;1.10;1.10;;;;;;;;;;5019164;28;20248;-60
2022/07/21 11:18:08;;;;;;;1.10;1.10;;;;;;;;;;5022243;28;20197;-60
2022/07/21 11:20:34;;;;;;;1.10;1.10;;;;;;;;;;5025533;28;20212;-60
2022/07/21 11:23:03;;;;;;;0.90;0.90;;;;;;;;;;5023390;28;20706;-60
2022/07/21 11:25:29;;;;;;;1.00;1.00;;;;;;;;;;5031861;28;21434;-60
2022/07/21 11:27:55;;;;;;;1.00;1.00;;;;;;;;;;5023404;28;20207;-61
2022/07/21 11:30:21;;;;;;;1.00;1.00;;;;;;;;;;5028961;28;20228;-60
2022/07/21 11:32:47;;;;;;;1.00;1.00;;;;;;;;;;5023430;28;20189;-61
2022/07/21 11:35:13;;;;;;;0.90;0.90;;;;;;;;;;5029253;28;20239;-60
2022/07/21 11:37:43;;;;;;;1.00;1.00;;;;;;;;;;5029419;28;20615;-61
2022/07/21 11:40:13;;;;;;;1.00;1.00;;;;;;;;;;5028448;28;20290;-60
2022/07/21 11:42:39;;;;;;;1.00;1.00;;;;;;;;;;5023672;28;20349;-61
2022/07/21 11:45:06;;;;;;;0.93;0.93;;;;;;;;;;5018707;28;20241;-60
2022/07/21 11:47:31;;;;;;;1.00;1.00;;;;;;;;;;4995980;28;20823;-60
2022/07/21 11:49:58;;;;;;;1.00;1.00;;;;;;;;;;5025368;28;21023;-60
2022/07/21 11:52:31;;;;;;;1.00;1.00;;;;;;;;;;5026919;28;20208;-60
2022/07/21 11:54:58;;;;;;;1.00;1.00;;;;;;;;;;5030215;28;20195;-61
2022/07/21 11:57:24;;;;;;;0.90;0.90;;;;;;;;;;5034127;28;20227;-61
2022/07/21 11:59:50;;;;;;;1.00;1.00;;;;;;;;;;5028646;28;20197;-61
2022/07/21 12:02:20;;;;;;;1.00;1.00;;;;;;;;;;5029068;28;20240;-61
2022/07/21 12:04:47;;;;;;;1.00;1.00;;;;;;;;;;5025761;28;20236;-61
2022/07/21 12:07:20;;;;;;;0.90;0.90;;;;;;;;;;5017145;28;20657;-61
2022/07/21 12:09:46;;;;;;;1.00;1.00;;;;;;;;;;5015729;28;20408;-62
2022/07/21 12:12:12;;;;;;;1.00;1.00;;;;;;;;;;5029733;28;20224;-62
2022/07/21 12:14:39;;;;;;;1.10;1.10;;;;;;;;;;5019053;28;20248;-58
2022/07/21 12:17:05;;;;;;;1.25;1.25;;;;;;;;;;5033687;28;20233;-61
2022/07/21 12:19:31;;;;;;;1.00;1.00;;;;;;;;;;5021165;28;20223;-61
2022/07/21 12:21:57;;;;;;;1.00;1.00;;;;;;;;;;5022673;28;20255;-62
2022/07/21 12:24:22;;;;;;;1.10;1.10;;;;;;;;;;5027209;28;20766;-61
2022/07/21 12:26:48;;;;;;;1.30;1.30;;;;;;;;;;5027991;28;20685;-62
2022/07/21 12:29:27;;;;;;;1.00;1.00;;;;;;;;;;5031884;28;20708;-62
2022/07/21 12:31:53;;;;;;;1.00;1.00;;;;;;;;;;5001817;28;20223;-60
2022/07/21 12:34:19;;;;;;;1.17;1.17;;;;;;;;;;5021005;28;20201;-59
2022/07/21 12:36:45;;;;;;;1.00;1.00;;;;;;;;;;5027401;28;20231;-59
2022/07/21 12:42:30;;;;;;;1.00;1.00;;;;;;;;;;5021714;28;20292;-59
2022/07/21 12:44:56;;;;;;;0.90;0.90;;;;;;;;;;5026914;28;20205;-59
2022/07/21 12:47:22;;;;;;;0.90;0.90;;;;;;;;;;5028636;28;20220;-59
2022/07/21 12:49:57;;;;;;;1.00;1.00;;;;;;;;;;5030250;28;20215;-59
2022/07/21 12:52:24;;;;;;;1.00;1.00;;;;;;;;;;5029919;28;20246;-59
2022/07/21 12:54:50;;;;;;;1.00;1.00;;;;;;;;;;5017200;28;20618;-59
2022/07/21 12:57:16;;;;;;;0.95;0.95;;;;;;;;;;5030493;28;20295;-59
2022/07/21 12:59:42;;;;;;;1.13;1.13;;;;;;;;;;5018926;28;20252;-59
2022/07/21 13:02:08;;;;;;;1.00;1.00;;;;;;;;;;5022470;28;20254;-59
2022/07/21 13:04:34;;;;;;;1.00;1.00;;;;;;;;;;5034025;28;20212;-60
2022/07/21 13:07:00;;;;;;;1.00;1.00;;;;;;;;;;5012707;28;20377;-59
2022/07/21 13:09:26;;;;;;;1.00;1.00;;;;;;;;;;5011309;28;20196;-59
2022/07/21 13:11:52;;;;;;;1.00;1.00;;;;;;;;;;5011454;28;20283;-59
2022/07/21 13:14:18;;;;;;;1.00;1.00;;;;;;;;;;5010821;28;20237;-60
2022/07/21 13:16:43;;;;;;;0.98;0.98;;;;;;;;;;5001456;28;20221;-60
2022/07/21 13:19:09;;;;;;;1.00;1.00;;;;;;;;;;5009290;28;20275;-59
2022/07/21 13:21:35;;;;;;;0.90;0.90;;;;;;;;;;4999605;28;20212;-60
2022/07/21 13:24:01;;;;;;;0.90;0.90;;;;;;;;;;5005835;28;21110;-60
2022/07/21 13:26:28;;;;;;;0.93;0.93;;;;;;;;;;4991974;28;20260;-60
2022/07/21 13:28:54;;;;;;;1.00;1.00;;;;;;;;;;4995599;28;20597;-59
2022/07/21 13:31:20;;;;;;;0.93;0.93;;;;;;;;;;4997547;28;20699;-59
2022/07/21 13:33:46;;;;;;;0.90;0.90;;;;;;;;;;4996653;28;20889;-58
2022/07/21 13:36:12;;;;;;;0.90;0.90;;;;;;;;;;5002576;28;20235;-59
2022/07/21 13:38:38;;;;;;;1.00;1.00;;;;;;;;;;4992563;28;20208;-59
2022/07/21 13:41:04;;;;;;;0.93;0.93;;;;;;;;;;5000277;28;20249;-59
2022/07/21 13:43:30;;;;;;;1.10;1.10;;;;;;;;;;4998231;28;20216;-60
2022/07/21 13:45:56;;;;;;;1.10;1.10;;;;;;;;;;5007856;28;20312;-59
2022/07/21 13:48:22;;;;;;;1.00;1.00;;;;;;;;;;4997372;28;20621;-59
2022/07/21 13:50:48;;;;;;;1.00;1.00;;;;;;;;;;5000364;28;20237;-59
2022/07/21 13:53:14;;;;;;;0.90;0.90;;;;;;;;;;5008638;28;20231;-59
2022/07/21 13:55:40;;;;;;;1.00;1.00;;;;;;;;;;5003494;28;20229;-59
2022/07/21 13:58:08;;;;;;;0.90;0.90;;;;;;;;;;5002681;28;20259;-59
2022/07/21 14:00:34;;;;;;;1.10;1.10;;;;;;;;;;5004006;28;20227;-59
2022/07/21 14:02:59;;;;;;;1.00;1.00;;;;;;;;;;4984974;28;20222;-59
2022/07/21 14:05:25;;;;;;;0.90;0.90;;;;;;;;;;4990596;28;20189;-59
2022/07/21 14:07:51;;;;;;;0.90;0.90;;;;;;;;;;5004875;28;20189;-59
2022/07/21 14:10:17;;;;;;;1.10;1.10;;;;;;;;;;5002461;28;20209;-59
2022/07/21 14:12:43;;;;;;;1.00;1.00;;;;;;;;;;4994262;28;20239;-59
2022/07/21 14:15:09;;;;;;;0.90;0.90;;;;;;;;;;4996909;28;20236;-59
2022/07/21 14:17:35;;;;;;;1.00;1.00;;;;;;;;;;5009556;28;20204;-59
2022/07/21 14:20:01;;;;;;;1.00;1.00;;;;;;;;;;5010433;28;20197;-59
2022/07/21 14:22:27;;;;;;;1.00;1.00;;;;;;;;;;5011399;28;20192;-59
2022/07/21 14:27:38;;;;;;;0.90;0.90;;;;;;;;;;5013929;28;20263;-59
2022/07/21 14:30:04;;;;;;;1.00;1.00;;;;;;;;;;5006599;28;20211;-59
2022/07/21 14:32:31;;;;;;;0.90;0.90;;;;;;;;;;5012932;28;20208;-59
2022/07/21 14:34:57;;;;;;;0.90;0.90;;;;;;;;;;5011596;28;20289;-59
2022/07/21 14:37:23;;;;;;;0.90;0.90;;;;;;;;;;5006904;28;20225;-59
2022/07/21 14:39:49;;;;;;;1.00;1.00;;;;;;;;;;5022672;28;20215;-59
2022/07/21 14:42:15;;;;;;;0.90;0.90;;;;;;;;;;5031969;28;20296;-58
2022/07/21 14:44:42;;;;;;;1.00;1.00;;;;;;;;;;5041469;28;20192;-59
2022/07/21 14:47:08;;;;;;;1.00;1.00;;;;;;;;;;5030602;28;20235;-59
2022/07/21 14:49:34;;;;;;;1.00;1.00;;;;;;;;;;5039901;28;20198;-59